»·PEaware :: N84GU KBUR-KLAS

N84GU :: KBUR-KLAS

FLIGHT INFORMATION

Flight Status: Arrived
Operator: Privately registered:
United States
More flights under this callsign
Pilot: David F. (21030)
Aircraft: GULFSTREAM 690 COMMANDER 840/900
(AC90)
More flights by this aircraft type
Origin: KBUR Bob Hope-Burbank
United States
Destination: KLAS McCarran Intl
United States
More flights between these airports :: More routes between these airports
Route: +VNY3 DAG CRESO4 KLAS
File this flight plan on PilotEdge
Remarks: I-5
Altitude:
(Current/Filed)
9,000ft
Speed:
(Current/Filed)
200kts
Departed: 08-Feb-19 11:23 AM
Arrived: 08-Feb-19 01:01 PM
Distance/Time
Traveled:
194nm/1:38
Distance/Time
To Go:
Arrived

Flight Plot

Page will automatically refresh every two minutes.

Flight plan parsing failed; only flown route is shown


Map Options




Map Legend


Flown Route
Filed Route
Departure Airport
Arrival Airport
Navaid (VOR, NDB)
Fix

Horizontal Profiles

Position Reports

Time Latitude Longitude Heading Altitude Ground
Speed
08-Feb-19 11:09 34.200204 -118.358745 0 780ft 0kts
08-Feb-19 11:10 34.200204 -118.358745 263 780ft 0kts
08-Feb-19 11:11 34.200204 -118.358745 263 780ft 0kts
08-Feb-19 11:12 34.200204 -118.358745 263 780ft 0kts
08-Feb-19 11:13 34.200204 -118.358745 263 780ft 0kts
08-Feb-19 11:14 34.200202 -118.358760 263 780ft 3kts
08-Feb-19 11:15 34.200292 -118.358351 345 780ft 15kts
08-Feb-19 11:16 34.202047 -118.358752 346 780ft 28kts
08-Feb-19 11:17 34.209507 -118.360813 348 780ft 36kts
08-Feb-19 11:19 34.211866 -118.361421 14 780ft 0kts
08-Feb-19 11:20 34.211866 -118.361421 14 780ft 0kts
08-Feb-19 11:21 34.211866 -118.361421 14 780ft 0kts
08-Feb-19 11:22 34.211866 -118.361421 14 780ft 0kts
08-Feb-19 11:23 34.206845 -118.358933 165 780ft 101kts
08-Feb-19 11:24 34.189925 -118.356649 220 1619ft 119kts
08-Feb-19 11:25 34.177127 -118.374970 226 2791ft 133kts
08-Feb-19 11:26 34.165838 -118.392198 230 3982ft 135kts
08-Feb-19 11:27 34.169900 -118.410887 345 4961ft 150kts
08-Feb-19 11:28 34.183634 -118.412895 354 5742ft 153kts
08-Feb-19 11:29 34.197765 -118.415168 352 6462ft 157kts
08-Feb-19 11:30 34.212580 -118.417723 351 7225ft 159kts
08-Feb-19 11:31 34.231323 -118.420043 10 8180ft 162kts
08-Feb-19 11:32 34.246091 -118.408476 24 9071ft 168kts
08-Feb-19 11:33 34.260285 -118.408565 329 9805ft 167kts
08-Feb-19 11:34 34.270135 -118.417559 314 10457ft 164kts
08-Feb-19 11:35 34.285591 -118.426068 339 11043ft 189kts
08-Feb-19 11:36 34.306102 -118.433423 341 11014ft 231kts
08-Feb-19 11:37 34.331968 -118.442482 341 11006ft 259kts
08-Feb-19 11:37 34.358520 -118.451584 348 11001ft 275kts
08-Feb-19 11:38 34.390444 -118.442135 30 11015ft 285kts
08-Feb-19 11:40 34.417617 -118.405851 54 11009ft 290kts
08-Feb-19 11:41 34.441111 -118.368060 53 11001ft 293kts
08-Feb-19 11:41 34.461366 -118.335767 53 10994ft 294kts
08-Feb-19 11:42 34.478486 -118.308472 53 10705ft 305kts
08-Feb-19 11:43 34.497531 -118.278148 53 10957ft 294kts
08-Feb-19 11:44 34.520209 -118.241898 53 10848ft 299kts
08-Feb-19 11:45 34.551361 -118.192107 53 10831ft 299kts
08-Feb-19 11:46 34.583366 -118.140855 53 10826ft 299kts
08-Feb-19 11:47 34.614796 -118.090455 53 10826ft 299kts
08-Feb-19 11:48 34.634917 -118.029882 83 10828ft 295kts
08-Feb-19 11:49 34.642241 -117.965594 85 10828ft 294kts
08-Feb-19 11:50 34.649246 -117.901129 85 10843ft 294kts
08-Feb-19 11:51 34.656470 -117.834588 85 10856ft 293kts
08-Feb-19 11:52 34.664452 -117.765305 79 10862ft 294kts
08-Feb-19 11:53 34.681110 -117.697481 75 10872ft 294kts
08-Feb-19 11:54 34.700468 -117.622001 75 10876ft 294kts
08-Feb-19 11:55 34.720716 -117.542806 75 10874ft 294kts
08-Feb-19 11:56 34.739107 -117.470649 75 10874ft 294kts
08-Feb-19 11:57 34.755887 -117.404657 75 10873ft 294kts
08-Feb-19 11:58 34.773158 -117.336561 75 10870ft 294kts
08-Feb-19 11:59 34.788802 -117.274677 75 10845ft 295kts
08-Feb-19 12:00 34.797569 -117.239945 75 10834ft 295kts
08-Feb-19 12:01 34.805252 -117.209473 75 10819ft 296kts
08-Feb-19 12:02 34.821397 -117.145329 75 10801ft 297kts
08-Feb-19 12:03 34.842274 -117.062211 75 10811ft 296kts
08-Feb-19 12:04 34.861041 -116.987239 75 10832ft 295kts
08-Feb-19 12:05 34.878002 -116.919264 75 10844ft 293kts
08-Feb-19 12:06 34.896576 -116.844698 75 10839ft 293kts
08-Feb-19 12:07 34.916940 -116.762661 75 10823ft 293kts
08-Feb-19 12:08 34.933495 -116.695747 75 10817ft 293kts
08-Feb-19 12:09 34.948623 -116.634442 76 10814ft 293kts
08-Feb-19 12:10 34.963688 -116.577201 67 10799ft 296kts
08-Feb-19 12:11 34.985758 -116.525810 64 10804ft 297kts
08-Feb-19 12:12 35.005932 -116.481615 64 10799ft 287kts
08-Feb-19 12:13 35.024845 -116.443386 62 10789ft 271kts
08-Feb-19 12:14 35.038556 -116.409964 69 10920ft 260kts
08-Feb-19 12:15 35.051835 -116.377769 67 10909ft 260kts
08-Feb-19 12:16 35.065680 -116.345885 67 10910ft 260kts
08-Feb-19 12:17 35.079900 -116.313598 67 10911ft 259kts
08-Feb-19 12:18 35.094066 -116.281508 67 10911ft 259kts
08-Feb-19 12:19 35.108405 -116.249013 67 10906ft 259kts
08-Feb-19 12:20 35.125325 -116.210639 67 10904ft 258kts
08-Feb-19 12:21 35.141093 -116.174886 67 10905ft 258kts
08-Feb-19 12:22 35.156582 -116.139675 67 10905ft 257kts
08-Feb-19 12:23 35.172021 -116.104551 67 10906ft 258kts
08-Feb-19 12:24 35.185159 -116.074664 67 10906ft 258kts
08-Feb-19 12:25 35.199476 -116.042017 67 10906ft 259kts
08-Feb-19 12:26 35.212557 -116.012181 67 10904ft 259kts
08-Feb-19 12:27 35.224779 -115.984217 67 10910ft 263kts
08-Feb-19 12:28 35.236981 -115.956333 67 10908ft 268kts
08-Feb-19 12:29 35.248533 -115.929920 66 10906ft 271kts
08-Feb-19 12:30 35.262595 -115.897804 66 10907ft 273kts
08-Feb-19 12:31 35.285247 -115.845927 66 10913ft 274kts
08-Feb-19 12:32 35.316158 -115.780675 53 10920ft 281kts
08-Feb-19 12:33 35.359585 -115.721881 51 10928ft 282kts
08-Feb-19 12:34 35.404609 -115.661849 51 10934ft 283kts
08-Feb-19 12:35 35.441481 -115.612588 51 10934ft 283kts
08-Feb-19 12:36 35.477691 -115.564133 51 10934ft 283kts
08-Feb-19 12:37 35.516034 -115.512755 51 10935ft 283kts
08-Feb-19 12:38 35.557153 -115.457556 51 10937ft 289kts
08-Feb-19 12:39 35.599790 -115.400303 51 10936ft 293kts
08-Feb-19 12:40 35.639086 -115.347459 51 10934ft 292kts
08-Feb-19 12:41 35.679150 -115.293450 52 10936ft 289kts
08-Feb-19 12:42 35.716246 -115.243369 52 10936ft 289kts
08-Feb-19 12:43 35.748122 -115.200278 52 10937ft 289kts
08-Feb-19 12:44 35.776459 -115.162818 49 10936ft 289kts
08-Feb-19 12:45 35.802370 -115.139544 22 10597ft 276kts
08-Feb-19 12:46 35.828935 -115.131608 13 9539ft 275kts
08-Feb-19 12:47 35.861673 -115.123967 12 8367ft 262kts
08-Feb-19 12:48 35.886368 -115.119080 10 7492ft 253kts
08-Feb-19 12:49 35.910193 -115.114687 10 6881ft 236kts
08-Feb-19 12:50 35.934996 -115.110529 10 6796ft 223kts
08-Feb-19 12:51 35.962074 -115.105015 11 6823ft 225kts
08-Feb-19 12:52 35.985393 -115.099925 12 6792ft 232kts
08-Feb-19 12:53 36.020862 -115.091689 15 6710ft 241kts
08-Feb-19 12:54 36.051576 -115.083758 15 6721ft 235kts
08-Feb-19 12:55 36.080800 -115.092349 307 5001ft 261kts
08-Feb-19 12:56 36.109124 -115.102907 336 3945ft 201kts
08-Feb-19 12:57 36.120302 -115.127361 281 3386ft 144kts
08-Feb-19 12:58 36.112876 -115.148160 213 2510ft 140kts
08-Feb-19 12:59 36.097492 -115.157708 205 2203ft 107kts
08-Feb-19 13:00 36.089397 -115.162453 234 2184ft 23kts
08-Feb-19 13:01 36.092329 -115.162140 28 2184ft 46kts
08-Feb-19 13:02 36.099076 -115.158636 329 2184ft 41kts
08-Feb-19 13:03 36.099251 -115.159942 295 2184ft 1kts
08-Feb-19 13:04 36.099367 -115.160242 295 2184ft 1kts

Navigation Log

Ident Type
Flight plan parsing failed, navigation log unavailable